sensor_id;sensor_type;location;lat;lon;timestamp;P1;durP1;ratioP1;P2;durP2;ratioP2
8825;SDS011;4449;50.872;4.714;2024-02-21T00:03:44;23.67;;;15.43;;
8825;SDS011;4449;50.872;4.714;2024-02-21T00:06:12;25.33;;;15.35;;
8825;SDS011;4449;50.872;4.714;2024-02-21T00:08:40;25.47;;;15.60;;
8825;SDS011;4449;50.872;4.714;2024-02-21T00:11:07;24.75;;;15.93;;
8825;SDS011;4449;50.872;4.714;2024-02-21T00:13:35;26.92;;;16.30;;
8825;SDS011;4449;50.872;4.714;2024-02-21T00:16:03;23.77;;;15.23;;
8825;SDS011;4449;50.872;4.714;2024-02-21T00:18:31;26.30;;;15.85;;
8825;SDS011;4449;50.872;4.714;2024-02-21T00:21:00;26.10;;;14.48;;
8825;SDS011;4449;50.872;4.714;2024-02-21T00:23:28;22.83;;;15.00;;
8825;SDS011;4449;50.872;4.714;2024-02-21T00:25:56;21.52;;;15.18;;
8825;SDS011;4449;50.872;4.714;2024-02-21T00:28:24;22.25;;;14.73;;
8825;SDS011;4449;50.872;4.714;2024-02-21T00:30:51;24.85;;;14.95;;
8825;SDS011;4449;50.872;4.714;2024-02-21T00:33:20;22.95;;;14.68;;
8825;SDS011;4449;50.872;4.714;2024-02-21T00:35:47;23.80;;;14.88;;
8825;SDS011;4449;50.872;4.714;2024-02-21T00:38:16;24.10;;;14.93;;
8825;SDS011;4449;50.872;4.714;2024-02-21T00:40:44;21.33;;;14.85;;
8825;SDS011;4449;50.872;4.714;2024-02-21T00:43:12;22.35;;;14.90;;
8825;SDS011;4449;50.872;4.714;2024-02-21T00:45:40;22.25;;;15.18;;
8825;SDS011;4449;50.872;4.714;2024-02-21T00:48:07;22.17;;;14.50;;
8825;SDS011;4449;50.872;4.714;2024-02-21T00:50:35;25.05;;;14.77;;
8825;SDS011;4449;50.872;4.714;2024-02-21T00:53:04;26.15;;;14.50;;
8825;SDS011;4449;50.872;4.714;2024-02-21T00:55:33;20.92;;;13.93;;
8825;SDS011;4449;50.872;4.714;2024-02-21T00:58:01;23.58;;;13.82;;
8825;SDS011;4449;50.872;4.714;2024-02-21T01:00:29;18.90;;;13.40;;
8825;SDS011;4449;50.872;4.714;2024-02-21T01:02:57;22.30;;;13.60;;
8825;SDS011;4449;50.872;4.714;2024-02-21T01:05:25;21.75;;;13.02;;
8825;SDS011;4449;50.872;4.714;2024-02-21T01:07:54;22.00;;;13.60;;
8825;SDS011;4449;50.872;4.714;2024-02-21T01:10:22;22.75;;;13.20;;
8825;SDS011;4449;50.872;4.714;2024-02-21T01:12:51;19.92;;;12.18;;
8825;SDS011;4449;50.872;4.714;2024-02-21T01:15:19;18.57;;;12.93;;
8825;SDS011;4449;50.872;4.714;2024-02-21T01:17:47;20.40;;;13.35;;
8825;SDS011;4449;50.872;4.714;2024-02-21T01:20:16;19.55;;;12.18;;
8825;SDS011;4449;50.872;4.714;2024-02-21T01:22:44;19.48;;;12.43;;
8825;SDS011;4449;50.872;4.714;2024-02-21T01:25:11;23.15;;;13.48;;
8825;SDS011;4449;50.872;4.714;2024-02-21T01:27:39;19.52;;;12.55;;
8825;SDS011;4449;50.872;4.714;2024-02-21T01:30:09;19.67;;;11.98;;
8825;SDS011;4449;50.872;4.714;2024-02-21T01:32:37;20.15;;;12.18;;
8825;SDS011;4449;50.872;4.714;2024-02-21T01:35:05;19.83;;;12.55;;
8825;SDS011;4449;50.872;4.714;2024-02-21T01:37:33;21.13;;;12.43;;
8825;SDS011;4449;50.872;4.714;2024-02-21T01:40:00;19.27;;;12.47;;
8825;SDS011;4449;50.872;4.714;2024-02-21T01:42:29;17.98;;;12.05;;
8825;SDS011;4449;50.872;4.714;2024-02-21T01:44:57;22.33;;;12.68;;
8825;SDS011;4449;50.872;4.714;2024-02-21T01:47:26;18.52;;;11.75;;
8825;SDS011;4449;50.872;4.714;2024-02-21T01:49:53;17.13;;;11.27;;
8825;SDS011;4449;50.872;4.714;2024-02-21T01:52:21;16.83;;;11.13;;
8825;SDS011;4449;50.872;4.714;2024-02-21T01:54:49;19.45;;;11.05;;
8825;SDS011;4449;50.872;4.714;2024-02-21T01:57:17;18.20;;;10.77;;
8825;SDS011;4449;50.872;4.714;2024-02-21T01:59:45;16.17;;;10.55;;
8825;SDS011;4449;50.872;4.714;2024-02-21T02:02:13;18.37;;;10.70;;
8825;SDS011;4449;50.872;4.714;2024-02-21T02:04:43;17.77;;;10.60;;
8825;SDS011;4449;50.872;4.714;2024-02-21T02:07:11;16.92;;;10.88;;
8825;SDS011;4449;50.872;4.714;2024-02-21T02:09:39;17.05;;;10.75;;
8825;SDS011;4449;50.872;4.714;2024-02-21T02:12:07;17.15;;;11.05;;
8825;SDS011;4449;50.872;4.714;2024-02-21T02:14:34;15.90;;;10.68;;
8825;SDS011;4449;50.872;4.714;2024-02-21T02:17:02;20.30;;;10.95;;
8825;SDS011;4449;50.872;4.714;2024-02-21T02:19:30;19.80;;;11.00;;
8825;SDS011;4449;50.872;4.714;2024-02-21T02:22:02;15.87;;;10.30;;
8825;SDS011;4449;50.872;4.714;2024-02-21T02:24:35;16.13;;;10.27;;
8825;SDS011;4449;50.872;4.714;2024-02-21T02:27:03;15.45;;;11.10;;
8825;SDS011;4449;50.872;4.714;2024-02-21T02:29:31;16.63;;;10.63;;
8825;SDS011;4449;50.872;4.714;2024-02-21T02:31:59;17.23;;;10.55;;
8825;SDS011;4449;50.872;4.714;2024-02-21T02:34:27;19.58;;;11.43;;
8825;SDS011;4449;50.872;4.714;2024-02-21T02:36:56;19.42;;;11.05;;
8825;SDS011;4449;50.872;4.714;2024-02-21T02:39:23;19.80;;;11.38;;
8825;SDS011;4449;50.872;4.714;2024-02-21T02:41:52;19.77;;;10.97;;
8825;SDS011;4449;50.872;4.714;2024-02-21T02:44:20;17.38;;;10.68;;
8825;SDS011;4449;50.872;4.714;2024-02-21T02:46:48;18.25;;;11.10;;
8825;SDS011;4449;50.872;4.714;2024-02-21T02:49:15;17.25;;;10.82;;
8825;SDS011;4449;50.872;4.714;2024-02-21T02:51:43;18.85;;;11.32;;
8825;SDS011;4449;50.872;4.714;2024-02-21T02:54:11;17.88;;;10.02;;
8825;SDS011;4449;50.872;4.714;2024-02-21T02:56:39;20.00;;;10.93;;
8825;SDS011;4449;50.872;4.714;2024-02-21T02:59:08;19.60;;;10.80;;
8825;SDS011;4449;50.872;4.714;2024-02-21T03:01:35;18.20;;;11.00;;
8825;SDS011;4449;50.872;4.714;2024-02-21T03:04:03;15.98;;;9.90;;
8825;SDS011;4449;50.872;4.714;2024-02-21T03:06:31;17.77;;;10.68;;
8825;SDS011;4449;50.872;4.714;2024-02-21T03:08:59;15.98;;;10.50;;
8825;SDS011;4449;50.872;4.714;2024-02-21T03:11:27;16.45;;;10.45;;
8825;SDS011;4449;50.872;4.714;2024-02-21T03:13:55;17.98;;;10.65;;
8825;SDS011;4449;50.872;4.714;2024-02-21T03:16:24;15.50;;;10.47;;
8825;SDS011;4449;50.872;4.714;2024-02-21T03:18:52;14.70;;;10.18;;
8825;SDS011;4449;50.872;4.714;2024-02-21T03:21:20;14.07;;;10.43;;
8825;SDS011;4449;50.872;4.714;2024-02-21T03:23:47;15.43;;;10.43;;
8825;SDS011;4449;50.872;4.714;2024-02-21T03:26:15;16.08;;;10.65;;
8825;SDS011;4449;50.872;4.714;2024-02-21T03:28:43;18.88;;;10.13;;
8825;SDS011;4449;50.872;4.714;2024-02-21T03:31:11;15.98;;;9.77;;
8825;SDS011;4449;50.872;4.714;2024-02-21T03:33:42;15.75;;;9.77;;
8825;SDS011;4449;50.872;4.714;2024-02-21T03:36:12;16.48;;;10.35;;
8825;SDS011;4449;50.872;4.714;2024-02-21T03:38:41;16.13;;;10.23;;
8825;SDS011;4449;50.872;4.714;2024-02-21T03:41:08;17.50;;;10.25;;
8825;SDS011;4449;50.872;4.714;2024-02-21T03:43:37;18.38;;;10.15;;
8825;SDS011;4449;50.872;4.714;2024-02-21T03:46:05;15.67;;;10.33;;
8825;SDS011;4449;50.872;4.714;2024-02-21T03:48:33;16.42;;;10.48;;
8825;SDS011;4449;50.872;4.714;2024-02-21T03:51:02;17.95;;;10.68;;
8825;SDS011;4449;50.872;4.714;2024-02-21T03:53:30;18.38;;;10.52;;
8825;SDS011;4449;50.872;4.714;2024-02-21T03:56:00;17.70;;;10.63;;
8825;SDS011;4449;50.872;4.714;2024-02-21T03:58:29;15.70;;;9.88;;
8825;SDS011;4449;50.872;4.714;2024-02-21T04:00:59;16.33;;;10.27;;
8825;SDS011;4449;50.872;4.714;2024-02-21T04:03:27;16.00;;;10.18;;
8825;SDS011;4449;50.872;4.714;2024-02-21T04:05:55;14.63;;;10.20;;
8825;SDS011;4449;50.872;4.714;2024-02-21T04:08:24;17.48;;;10.43;;
8825;SDS011;4449;50.872;4.714;2024-02-21T04:10:52;15.65;;;10.40;;
8825;SDS011;4449;50.872;4.714;2024-02-21T04:13:19;17.10;;;10.27;;
8825;SDS011;4449;50.872;4.714;2024-02-21T04:15:48;15.00;;;10.15;;
8825;SDS011;4449;50.872;4.714;2024-02-21T04:18:15;13.80;;;9.80;;
8825;SDS011;4449;50.872;4.714;2024-02-21T04:20:43;16.02;;;10.45;;
8825;SDS011;4449;50.872;4.714;2024-02-21T04:23:11;16.00;;;10.77;;
8825;SDS011;4449;50.872;4.714;2024-02-21T04:25:40;14.97;;;10.07;;
8825;SDS011;4449;50.872;4.714;2024-02-21T04:28:08;18.50;;;10.50;;
8825;SDS011;4449;50.872;4.714;2024-02-21T04:30:36;16.02;;;9.98;;
8825;SDS011;4449;50.872;4.714;2024-02-21T04:33:04;16.08;;;10.40;;
8825;SDS011;4449;50.872;4.714;2024-02-21T04:35:31;14.68;;;9.98;;
8825;SDS011;4449;50.872;4.714;2024-02-21T04:37:59;16.77;;;10.50;;
8825;SDS011;4449;50.872;4.714;2024-02-21T04:40:27;17.97;;;10.53;;
8825;SDS011;4449;50.872;4.714;2024-02-21T04:42:56;14.85;;;10.18;;
8825;SDS011;4449;50.872;4.714;2024-02-21T04:45:24;13.80;;;10.27;;
8825;SDS011;4449;50.872;4.714;2024-02-21T04:47:52;16.98;;;10.48;;
8825;SDS011;4449;50.872;4.714;2024-02-21T04:50:19;17.08;;;10.35;;
8825;SDS011;4449;50.872;4.714;2024-02-21T04:52:47;15.57;;;10.68;;
8825;SDS011;4449;50.872;4.714;2024-02-21T04:55:15;18.27;;;10.00;;
8825;SDS011;4449;50.872;4.714;2024-02-21T04:57:43;14.70;;;10.20;;
8825;SDS011;4449;50.872;4.714;2024-02-21T05:00:12;14.45;;;10.27;;
8825;SDS011;4449;50.872;4.714;2024-02-21T05:02:40;17.03;;;10.40;;
8825;SDS011;4449;50.872;4.714;2024-02-21T05:05:08;16.83;;;10.73;;
8825;SDS011;4449;50.872;4.714;2024-02-21T05:07:36;15.30;;;10.40;;
8825;SDS011;4449;50.872;4.714;2024-02-21T05:10:04;16.60;;;10.27;;
8825;SDS011;4449;50.872;4.714;2024-02-21T05:12:31;16.23;;;10.65;;
8825;SDS011;4449;50.872;4.714;2024-02-21T05:14:59;17.35;;;10.25;;
8825;SDS011;4449;50.872;4.714;2024-02-21T05:17:29;15.05;;;10.23;;
8825;SDS011;4449;50.872;4.714;2024-02-21T05:19:57;15.55;;;10.38;;
8825;SDS011;4449;50.872;4.714;2024-02-21T05:22:25;15.40;;;9.40;;
8825;SDS011;4449;50.872;4.714;2024-02-21T05:24:52;13.98;;;9.48;;
8825;SDS011;4449;50.872;4.714;2024-02-21T05:27:20;13.73;;;9.80;;
8825;SDS011;4449;50.872;4.714;2024-02-21T05:29:48;12.68;;;8.88;;
8825;SDS011;4449;50.872;4.714;2024-02-21T05:32:15;11.93;;;8.88;;
8825;SDS011;4449;50.872;4.714;2024-02-21T05:34:45;13.67;;;8.57;;
8825;SDS011;4449;50.872;4.714;2024-02-21T05:37:16;13.88;;;9.07;;
8825;SDS011;4449;50.872;4.714;2024-02-21T05:39:44;13.73;;;8.63;;
8825;SDS011;4449;50.872;4.714;2024-02-21T05:42:11;12.65;;;8.40;;
8825;SDS011;4449;50.872;4.714;2024-02-21T05:44:39;10.52;;;8.13;;
8825;SDS011;4449;50.872;4.714;2024-02-21T05:47:06;10.57;;;8.18;;
8825;SDS011;4449;50.872;4.714;2024-02-21T05:49:36;11.18;;;8.32;;
8825;SDS011;4449;50.872;4.714;2024-02-21T05:52:05;10.43;;;8.00;;
8825;SDS011;4449;50.872;4.714;2024-02-21T05:54:33;9.73;;;7.47;;
8825;SDS011;4449;50.872;4.714;2024-02-21T05:57:01;9.13;;;8.15;;
8825;SDS011;4449;50.872;4.714;2024-02-21T05:59:28;10.90;;;8.10;;
8825;SDS011;4449;50.872;4.714;2024-02-21T06:01:56;10.63;;;7.57;;
8825;SDS011;4449;50.872;4.714;2024-02-21T06:04:24;9.23;;;7.18;;
8825;SDS011;4449;50.872;4.714;2024-02-21T06:06:52;8.98;;;7.40;;
8825;SDS011;4449;50.872;4.714;2024-02-21T06:09:21;10.93;;;7.50;;
8825;SDS011;4449;50.872;4.714;2024-02-21T06:11:49;10.52;;;8.10;;
8825;SDS011;4449;50.872;4.714;2024-02-21T06:14:16;8.35;;;6.78;;
8825;SDS011;4449;50.872;4.714;2024-02-21T06:16:44;7.60;;;6.60;;
8825;SDS011;4449;50.872;4.714;2024-02-21T06:19:12;8.27;;;6.53;;
8825;SDS011;4449;50.872;4.714;2024-02-21T06:21:39;7.50;;;6.70;;
8825;SDS011;4449;50.872;4.714;2024-02-21T06:24:07;7.32;;;6.47;;
8825;SDS011;4449;50.872;4.714;2024-02-21T06:26:36;8.35;;;6.75;;
8825;SDS011;4449;50.872;4.714;2024-02-21T06:29:05;7.47;;;6.35;;
8825;SDS011;4449;50.872;4.714;2024-02-21T06:31:33;9.93;;;7.10;;
8825;SDS011;4449;50.872;4.714;2024-02-21T06:34:02;7.78;;;6.60;;
8825;SDS011;4449;50.872;4.714;2024-02-21T06:36:30;9.02;;;6.80;;
8825;SDS011;4449;50.872;4.714;2024-02-21T06:38:58;9.05;;;7.07;;
8825;SDS011;4449;50.872;4.714;2024-02-21T06:41:26;7.78;;;6.90;;
8825;SDS011;4449;50.872;4.714;2024-02-21T06:43:57;9.23;;;7.63;;
8825;SDS011;4449;50.872;4.714;2024-02-21T06:46:25;11.40;;;7.57;;
8825;SDS011;4449;50.872;4.714;2024-02-21T06:48:54;10.30;;;6.97;;
8825;SDS011;4449;50.872;4.714;2024-02-21T06:51:22;8.65;;;7.40;;
8825;SDS011;4449;50.872;4.714;2024-02-21T06:53:50;9.13;;;7.53;;
8825;SDS011;4449;50.872;4.714;2024-02-21T06:56:18;11.25;;;7.90;;
8825;SDS011;4449;50.872;4.714;2024-02-21T06:58:46;11.23;;;8.77;;
8825;SDS011;4449;50.872;4.714;2024-02-21T07:01:15;11.65;;;8.93;;
8825;SDS011;4449;50.872;4.714;2024-02-21T07:03:43;9.73;;;8.75;;
8825;SDS011;4449;50.872;4.714;2024-02-21T07:06:11;12.27;;;9.23;;
8825;SDS011;4449;50.872;4.714;2024-02-21T07:08:38;11.35;;;9.20;;
8825;SDS011;4449;50.872;4.714;2024-02-21T07:11:06;11.23;;;10.02;;
8825;SDS011;4449;50.872;4.714;2024-02-21T07:13:34;11.23;;;9.80;;
8825;SDS011;4449;50.872;4.714;2024-02-21T07:16:02;12.13;;;9.98;;
8825;SDS011;4449;50.872;4.714;2024-02-21T07:18:31;12.43;;;10.05;;
8825;SDS011;4449;50.872;4.714;2024-02-21T07:20:58;12.38;;;10.00;;
8825;SDS011;4449;50.872;4.714;2024-02-21T07:23:26;12.05;;;9.65;;
8825;SDS011;4449;50.872;4.714;2024-02-21T07:25:54;13.85;;;10.60;;
8825;SDS011;4449;50.872;4.714;2024-02-21T07:28:22;12.48;;;10.85;;
8825;SDS011;4449;50.872;4.714;2024-02-21T07:30:49;12.07;;;10.32;;
8825;SDS011;4449;50.872;4.714;2024-02-21T07:33:17;11.45;;;10.27;;
8825;SDS011;4449;50.872;4.714;2024-02-21T07:35:46;13.00;;;10.68;;
8825;SDS011;4449;50.872;4.714;2024-02-21T07:38:14;12.25;;;10.98;;
8825;SDS011;4449;50.872;4.714;2024-02-21T07:40:44;13.70;;;10.95;;
8825;SDS011;4449;50.872;4.714;2024-02-21T07:43:11;12.85;;;10.93;;
8825;SDS011;4449;50.872;4.714;2024-02-21T07:45:39;11.97;;;10.87;;
8825;SDS011;4449;50.872;4.714;2024-02-21T07:48:07;12.60;;;11.32;;
8825;SDS011;4449;50.872;4.714;2024-02-21T07:50:34;13.05;;;9.80;;
8825;SDS011;4449;50.872;4.714;2024-02-21T07:53:04;11.35;;;10.20;;
8825;SDS011;4449;50.872;4.714;2024-02-21T07:55:32;12.43;;;10.52;;
8825;SDS011;4449;50.872;4.714;2024-02-21T07:57:59;11.38;;;10.20;;
8825;SDS011;4449;50.872;4.714;2024-02-21T08:00:27;12.77;;;10.65;;
8825;SDS011;4449;50.872;4.714;2024-02-21T08:02:55;10.88;;;9.77;;
8825;SDS011;4449;50.872;4.714;2024-02-21T08:05:23;13.40;;;10.90;;
8825;SDS011;4449;50.872;4.714;2024-02-21T08:07:51;12.63;;;11.07;;
8825;SDS011;4449;50.872;4.714;2024-02-21T08:10:20;12.98;;;10.93;;
8825;SDS011;4449;50.872;4.714;2024-02-21T08:12:48;13.15;;;10.75;;
8825;SDS011;4449;50.872;4.714;2024-02-21T08:15:16;13.40;;;10.85;;
8825;SDS011;4449;50.872;4.714;2024-02-21T08:17:44;11.80;;;10.57;;
8825;SDS011;4449;50.872;4.714;2024-02-21T08:20:12;12.82;;;10.88;;
8825;SDS011;4449;50.872;4.714;2024-02-21T08:22:39;13.90;;;10.10;;
8825;SDS011;4449;50.872;4.714;2024-02-21T08:25:07;12.25;;;9.63;;
8825;SDS011;4449;50.872;4.714;2024-02-21T08:27:36;13.65;;;8.43;;
8825;SDS011;4449;50.872;4.714;2024-02-21T08:30:05;12.20;;;8.43;;
8825;SDS011;4449;50.872;4.714;2024-02-21T08:32:33;11.55;;;8.25;;
8825;SDS011;4449;50.872;4.714;2024-02-21T08:35:01;9.70;;;7.93;;
8825;SDS011;4449;50.872;4.714;2024-02-21T08:37:30;11.48;;;8.07;;
8825;SDS011;4449;50.872;4.714;2024-02-21T08:39:58;10.75;;;8.00;;
8825;SDS011;4449;50.872;4.714;2024-02-21T08:42:30;9.55;;;7.53;;
8825;SDS011;4449;50.872;4.714;2024-02-21T08:44:59;10.63;;;8.00;;
8825;SDS011;4449;50.872;4.714;2024-02-21T08:47:26;10.82;;;7.60;;
8825;SDS011;4449;50.872;4.714;2024-02-21T08:49:54;10.20;;;7.63;;
8825;SDS011;4449;50.872;4.714;2024-02-21T08:52:22;10.15;;;6.75;;
8825;SDS011;4449;50.872;4.714;2024-02-21T08:54:49;11.82;;;7.22;;
8825;SDS011;4449;50.872;4.714;2024-02-21T08:57:18;8.93;;;6.72;;
8825;SDS011;4449;50.872;4.714;2024-02-21T08:59:46;9.95;;;6.40;;
8825;SDS011;4449;50.872;4.714;2024-02-21T09:02:15;9.53;;;6.10;;
8825;SDS011;4449;50.872;4.714;2024-02-21T09:04:43;8.57;;;5.90;;
8825;SDS011;4449;50.872;4.714;2024-02-21T09:07:11;7.65;;;5.80;;
8825;SDS011;4449;50.872;4.714;2024-02-21T09:09:39;8.45;;;5.57;;
8825;SDS011;4449;50.872;4.714;2024-02-21T09:12:07;8.05;;;5.28;;
8825;SDS011;4449;50.872;4.714;2024-02-21T09:14:37;7.10;;;5.68;;
8825;SDS011;4449;50.872;4.714;2024-02-21T09:17:05;7.40;;;5.75;;
8825;SDS011;4449;50.872;4.714;2024-02-21T09:19:35;7.63;;;5.50;;
8825;SDS011;4449;50.872;4.714;2024-02-21T09:34:44;8.43;;;5.90;;
8825;SDS011;4449;50.872;4.714;2024-02-21T09:37:12;6.97;;;5.50;;
8825;SDS011;4449;50.872;4.714;2024-02-21T09:39:39;6.38;;;4.85;;
8825;SDS011;4449;50.872;4.714;2024-02-21T09:42:07;8.13;;;5.57;;
8825;SDS011;4449;50.872;4.714;2024-02-21T09:44:38;8.68;;;5.03;;
8825;SDS011;4449;50.872;4.714;2024-02-21T09:47:07;8.65;;;5.22;;
8825;SDS011;4449;50.872;4.714;2024-02-21T09:49:37;7.30;;;5.07;;
8825;SDS011;4449;50.872;4.714;2024-02-21T09:52:07;8.23;;;5.78;;
8825;SDS011;4449;50.872;4.714;2024-02-21T09:54:34;7.97;;;4.97;;
8825;SDS011;4449;50.872;4.714;2024-02-21T09:57:02;5.72;;;4.57;;
8825;SDS011;4449;50.872;4.714;2024-02-21T09:59:31;6.95;;;5.00;;
8825;SDS011;4449;50.872;4.714;2024-02-21T10:01:59;7.88;;;5.00;;
8825;SDS011;4449;50.872;4.714;2024-02-21T10:04:28;8.55;;;4.97;;
8825;SDS011;4449;50.872;4.714;2024-02-21T10:06:55;8.10;;;4.97;;
8825;SDS011;4449;50.872;4.714;2024-02-21T10:09:25;7.38;;;4.70;;
8825;SDS011;4449;50.872;4.714;2024-02-21T10:11:53;7.45;;;4.88;;
8825;SDS011;4449;50.872;4.714;2024-02-21T10:14:21;6.72;;;4.70;;
8825;SDS011;4449;50.872;4.714;2024-02-21T10:16:56;7.18;;;4.82;;
8825;SDS011;4449;50.872;4.714;2024-02-21T10:19:24;6.80;;;4.85;;
8825;SDS011;4449;50.872;4.714;2024-02-21T10:22:01;6.20;;;4.53;;
8825;SDS011;4449;50.872;4.714;2024-02-21T10:24:31;4.90;;;4.13;;
8825;SDS011;4449;50.872;4.714;2024-02-21T10:27:02;8.43;;;4.38;;
8825;SDS011;4449;50.872;4.714;2024-02-21T10:29:30;7.85;;;4.68;;
8825;SDS011;4449;50.872;4.714;2024-02-21T10:32:07;8.70;;;4.63;;
8825;SDS011;4449;50.872;4.714;2024-02-21T10:34:36;8.10;;;4.43;;
8825;SDS011;4449;50.872;4.714;2024-02-21T10:37:04;7.35;;;4.50;;
8825;SDS011;4449;50.872;4.714;2024-02-21T10:39:34;8.60;;;4.55;;
8825;SDS011;4449;50.872;4.714;2024-02-21T10:42:02;6.72;;;4.57;;
8825;SDS011;4449;50.872;4.714;2024-02-21T10:44:31;5.63;;;4.22;;
8825;SDS011;4449;50.872;4.714;2024-02-21T10:46:59;6.70;;;4.30;;
8825;SDS011;4449;50.872;4.714;2024-02-21T10:49:27;9.98;;;4.85;;
8825;SDS011;4449;50.872;4.714;2024-02-21T10:51:59;7.73;;;4.60;;
8825;SDS011;4449;50.872;4.714;2024-02-21T10:54:39;7.25;;;4.38;;
8825;SDS011;4449;50.872;4.714;2024-02-21T10:57:07;6.55;;;4.50;;
8825;SDS011;4449;50.872;4.714;2024-02-21T10:59:37;6.47;;;4.25;;
8825;SDS011;4449;50.872;4.714;2024-02-21T11:02:04;7.13;;;4.95;;
8825;SDS011;4449;50.872;4.714;2024-02-21T11:04:32;6.97;;;4.13;;
8825;SDS011;4449;50.872;4.714;2024-02-21T11:07:02;6.40;;;4.30;;
8825;SDS011;4449;50.872;4.714;2024-02-21T11:09:30;5.20;;;4.20;;
8825;SDS011;4449;50.872;4.714;2024-02-21T11:12:01;7.65;;;4.47;;
8825;SDS011;4449;50.872;4.714;2024-02-21T11:14:29;8.57;;;4.37;;
8825;SDS011;4449;50.872;4.714;2024-02-21T11:16:58;7.63;;;4.82;;
8825;SDS011;4449;50.872;4.714;2024-02-21T11:19:26;7.65;;;5.05;;
8825;SDS011;4449;50.872;4.714;2024-02-21T12:19:56;5.45;;;3.72;;
8825;SDS011;4449;50.872;4.714;2024-02-21T12:22:24;5.27;;;3.93;;
8825;SDS011;4449;50.872;4.714;2024-02-21T12:24:53;4.93;;;3.58;;
8825;SDS011;4449;50.872;4.714;2024-02-21T12:27:21;5.75;;;3.72;;
8825;SDS011;4449;50.872;4.714;2024-02-21T12:29:49;4.63;;;3.58;;
8825;SDS011;4449;50.872;4.714;2024-02-21T12:32:16;4.65;;;3.70;;
8825;SDS011;4449;50.872;4.714;2024-02-21T12:34:44;4.07;;;3.40;;
8825;SDS011;4449;50.872;4.714;2024-02-21T12:37:13;7.15;;;4.10;;
8825;SDS011;4449;50.872;4.714;2024-02-21T12:39:41;4.65;;;3.50;;
8825;SDS011;4449;50.872;4.714;2024-02-21T12:42:09;4.53;;;3.72;;
8825;SDS011;4449;50.872;4.714;2024-02-21T12:44:38;4.38;;;3.35;;
8825;SDS011;4449;50.872;4.714;2024-02-21T12:47:05;4.53;;;3.60;;
8825;SDS011;4449;50.872;4.714;2024-02-21T12:49:33;5.50;;;3.85;;
8825;SDS011;4449;50.872;4.714;2024-02-21T12:52:01;6.38;;;4.07;;
8825;SDS011;4449;50.872;4.714;2024-02-21T12:54:30;5.88;;;3.90;;
8825;SDS011;4449;50.872;4.714;2024-02-21T12:56:59;6.43;;;4.00;;
8825;SDS011;4449;50.872;4.714;2024-02-21T12:59:28;6.18;;;4.07;;
8825;SDS011;4449;50.872;4.714;2024-02-21T13:01:55;5.35;;;4.13;;
8825;SDS011;4449;50.872;4.714;2024-02-21T13:04:23;5.82;;;4.20;;
8825;SDS011;4449;50.872;4.714;2024-02-21T13:06:51;5.30;;;4.27;;
8825;SDS011;4449;50.872;4.714;2024-02-21T13:09:19;4.90;;;4.13;;
8825;SDS011;4449;50.872;4.714;2024-02-21T13:11:49;4.40;;;4.00;;
8825;SDS011;4449;50.872;4.714;2024-02-21T13:14:17;8.95;;;4.68;;
8825;SDS011;4449;50.872;4.714;2024-02-21T13:16:44;7.28;;;4.28;;
8825;SDS011;4449;50.872;4.714;2024-02-21T13:19:12;6.45;;;4.20;;
8825;SDS011;4449;50.872;4.714;2024-02-21T13:21:42;4.40;;;4.00;;
8825;SDS011;4449;50.872;4.714;2024-02-21T13:24:10;4.95;;;4.20;;
8825;SDS011;4449;50.872;4.714;2024-02-21T13:26:38;8.05;;;4.30;;
8825;SDS011;4449;50.872;4.714;2024-02-21T13:29:07;7.45;;;4.47;;
8825;SDS011;4449;50.872;4.714;2024-02-21T13:31:35;9.70;;;4.50;;
8825;SDS011;4449;50.872;4.714;2024-02-21T13:34:03;7.72;;;4.30;;
8825;SDS011;4449;50.872;4.714;2024-02-21T13:36:31;6.70;;;4.53;;
8825;SDS011;4449;50.872;4.714;2024-02-21T13:38:59;6.63;;;4.53;;
8825;SDS011;4449;50.872;4.714;2024-02-21T13:41:30;7.32;;;4.70;;
8825;SDS011;4449;50.872;4.714;2024-02-21T13:43:59;5.97;;;4.43;;
8825;SDS011;4449;50.872;4.714;2024-02-21T13:46:28;8.23;;;4.60;;
8825;SDS011;4449;50.872;4.714;2024-02-21T13:49:02;6.47;;;4.43;;
8825;SDS011;4449;50.872;4.714;2024-02-21T13:51:31;6.63;;;4.72;;
8825;SDS011;4449;50.872;4.714;2024-02-21T13:54:01;5.38;;;4.75;;
8825;SDS011;4449;50.872;4.714;2024-02-21T13:56:29;8.32;;;4.95;;
8825;SDS011;4449;50.872;4.714;2024-02-21T13:58:57;6.10;;;4.80;;
8825;SDS011;4449;50.872;4.714;2024-02-21T14:01:27;5.55;;;4.75;;
8825;SDS011;4449;50.872;4.714;2024-02-21T14:03:57;8.00;;;4.82;;
8825;SDS011;4449;50.872;4.714;2024-02-21T14:06:25;7.55;;;4.60;;
8825;SDS011;4449;50.872;4.714;2024-02-21T14:08:52;7.18;;;5.28;;
8825;SDS011;4449;50.872;4.714;2024-02-21T14:11:20;8.57;;;4.47;;
8825;SDS011;4449;50.872;4.714;2024-02-21T14:13:48;5.78;;;4.55;;
8825;SDS011;4449;50.872;4.714;2024-02-21T14:16:16;6.93;;;4.70;;
8825;SDS011;4449;50.872;4.714;2024-02-21T14:18:45;5.38;;;4.45;;
8825;SDS011;4449;50.872;4.714;2024-02-21T14:21:13;5.38;;;4.47;;
8825;SDS011;4449;50.872;4.714;2024-02-21T14:23:41;6.20;;;4.60;;
8825;SDS011;4449;50.872;4.714;2024-02-21T14:26:10;5.38;;;4.68;;
8825;SDS011;4449;50.872;4.714;2024-02-21T14:28:38;5.93;;;4.72;;
8825;SDS011;4449;50.872;4.714;2024-02-21T14:31:05;6.97;;;5.00;;
8825;SDS011;4449;50.872;4.714;2024-02-21T14:33:34;5.53;;;4.80;;
8825;SDS011;4449;50.872;4.714;2024-02-21T14:36:13;7.38;;;4.97;;
8825;SDS011;4449;50.872;4.714;2024-02-21T14:38:41;7.65;;;5.20;;
8825;SDS011;4449;50.872;4.714;2024-02-21T14:41:09;7.85;;;4.88;;
8825;SDS011;4449;50.872;4.714;2024-02-21T14:43:37;8.50;;;4.97;;
8825;SDS011;4449;50.872;4.714;2024-02-21T14:46:05;6.85;;;4.75;;
8825;SDS011;4449;50.872;4.714;2024-02-21T14:48:33;7.27;;;5.20;;
8825;SDS011;4449;50.872;4.714;2024-02-21T14:51:01;6.97;;;5.23;;
8825;SDS011;4449;50.872;4.714;2024-02-21T14:53:31;5.80;;;4.88;;
8825;SDS011;4449;50.872;4.714;2024-02-21T14:55:58;8.13;;;4.78;;
8825;SDS011;4449;50.872;4.714;2024-02-21T14:58:26;5.65;;;5.05;;
8825;SDS011;4449;50.872;4.714;2024-02-21T15:00:53;6.38;;;4.90;;
8825;SDS011;4449;50.872;4.714;2024-02-21T15:03:21;9.88;;;5.45;;
8825;SDS011;4449;50.872;4.714;2024-02-21T15:05:50;5.50;;;4.88;;
8825;SDS011;4449;50.872;4.714;2024-02-21T15:08:19;7.13;;;5.15;;
8825;SDS011;4449;50.872;4.714;2024-02-21T15:10:48;7.25;;;5.32;;
8825;SDS011;4449;50.872;4.714;2024-02-21T15:13:17;6.80;;;4.93;;
8825;SDS011;4449;50.872;4.714;2024-02-21T15:15:44;7.47;;;5.43;;
8825;SDS011;4449;50.872;4.714;2024-02-21T15:18:13;6.40;;;5.32;;
8825;SDS011;4449;50.872;4.714;2024-02-21T15:20:41;5.15;;;4.65;;
8825;SDS011;4449;50.872;4.714;2024-02-21T15:23:08;7.97;;;5.63;;
8825;SDS011;4449;50.872;4.714;2024-02-21T15:25:36;6.38;;;5.38;;
8825;SDS011;4449;50.872;4.714;2024-02-21T15:28:06;6.45;;;4.93;;
8825;SDS011;4449;50.872;4.714;2024-02-21T15:30:33;7.13;;;5.50;;
8825;SDS011;4449;50.872;4.714;2024-02-21T15:33:01;6.45;;;5.43;;
8825;SDS011;4449;50.872;4.714;2024-02-21T15:50:26;6.65;;;5.78;;
8825;SDS011;4449;50.872;4.714;2024-02-21T15:52:54;6.60;;;5.57;;
8825;SDS011;4449;50.872;4.714;2024-02-21T15:55:22;9.43;;;5.50;;
8825;SDS011;4449;50.872;4.714;2024-02-21T15:57:50;6.20;;;5.60;;
8825;SDS011;4449;50.872;4.714;2024-02-21T16:00:18;6.45;;;5.05;;
8825;SDS011;4449;50.872;4.714;2024-02-21T16:02:47;6.82;;;5.18;;
8825;SDS011;4449;50.872;4.714;2024-02-21T16:05:14;6.68;;;5.18;;
8825;SDS011;4449;50.872;4.714;2024-02-21T16:07:44;7.53;;;5.15;;
8825;SDS011;4449;50.872;4.714;2024-02-21T16:10:11;5.78;;;5.18;;
8825;SDS011;4449;50.872;4.714;2024-02-21T16:12:39;5.70;;;4.70;;
8825;SDS011;4449;50.872;4.714;2024-02-21T16:15:07;6.28;;;5.32;;
8825;SDS011;4449;50.872;4.714;2024-02-21T16:17:36;7.65;;;5.50;;
8825;SDS011;4449;50.872;4.714;2024-02-21T16:20:05;5.60;;;5.05;;
8825;SDS011;4449;50.872;4.714;2024-02-21T16:22:34;7.78;;;5.35;;
8825;SDS011;4449;50.872;4.714;2024-02-21T16:25:03;7.07;;;5.57;;
8825;SDS011;4449;50.872;4.714;2024-02-21T16:27:32;8.23;;;5.55;;
8825;SDS011;4449;50.872;4.714;2024-02-21T16:29:59;9.37;;;5.27;;
8825;SDS011;4449;50.872;4.714;2024-02-21T16:32:27;7.60;;;5.90;;
8825;SDS011;4449;50.872;4.714;2024-02-21T16:34:56;6.37;;;5.77;;
8825;SDS011;4449;50.872;4.714;2024-02-21T16:37:23;6.53;;;5.70;;